sensor_id;sensor_type;location;lat;lon;timestamp;P1;durP1;ratioP1;P2;durP2;ratioP2
9898;SDS011;4988;49.238;6.698;2024-02-14T00:02:15;17.37;;;4.90;;
9898;SDS011;4988;49.238;6.698;2024-02-14T00:04:41;12.53;;;4.87;;
9898;SDS011;4988;49.238;6.698;2024-02-14T00:07:06;5.67;;;4.03;;
9898;SDS011;4988;49.238;6.698;2024-02-14T00:09:31;7.70;;;4.27;;
9898;SDS011;4988;49.238;6.698;2024-02-14T00:11:57;10.43;;;4.40;;
9898;SDS011;4988;49.238;6.698;2024-02-14T00:14:22;8.50;;;4.27;;
9898;SDS011;4988;49.238;6.698;2024-02-14T00:16:47;6.10;;;4.17;;
9898;SDS011;4988;49.238;6.698;2024-02-14T00:19:13;10.73;;;3.90;;
9898;SDS011;4988;49.238;6.698;2024-02-14T00:21:39;8.57;;;4.30;;
9898;SDS011;4988;49.238;6.698;2024-02-14T00:24:04;7.53;;;4.00;;
9898;SDS011;4988;49.238;6.698;2024-02-14T00:26:30;8.23;;;4.00;;
9898;SDS011;4988;49.238;6.698;2024-02-14T00:28:55;7.60;;;4.10;;
9898;SDS011;4988;49.238;6.698;2024-02-14T00:31:21;7.00;;;3.80;;
9898;SDS011;4988;49.238;6.698;2024-02-14T00:33:46;9.07;;;3.73;;
9898;SDS011;4988;49.238;6.698;2024-02-14T00:36:11;8.23;;;3.97;;
9898;SDS011;4988;49.238;6.698;2024-02-14T00:38:37;8.60;;;4.07;;
9898;SDS011;4988;49.238;6.698;2024-02-14T00:41:02;9.77;;;4.63;;
9898;SDS011;4988;49.238;6.698;2024-02-14T00:43:28;9.37;;;4.10;;
9898;SDS011;4988;49.238;6.698;2024-02-14T00:45:53;9.77;;;4.80;;
9898;SDS011;4988;49.238;6.698;2024-02-14T00:48:19;10.00;;;4.60;;
9898;SDS011;4988;49.238;6.698;2024-02-14T00:50:44;7.87;;;4.60;;
9898;SDS011;4988;49.238;6.698;2024-02-14T00:53:10;10.93;;;5.03;;
9898;SDS011;4988;49.238;6.698;2024-02-14T00:55:36;10.27;;;4.63;;
9898;SDS011;4988;49.238;6.698;2024-02-14T00:58:01;14.33;;;6.37;;
9898;SDS011;4988;49.238;6.698;2024-02-14T01:00:27;11.97;;;5.30;;
9898;SDS011;4988;49.238;6.698;2024-02-14T01:02:52;13.00;;;5.83;;
9898;SDS011;4988;49.238;6.698;2024-02-14T01:05:18;16.80;;;5.63;;
9898;SDS011;4988;49.238;6.698;2024-02-14T01:07:43;15.97;;;6.00;;
9898;SDS011;4988;49.238;6.698;2024-02-14T01:10:08;11.57;;;5.00;;
9898;SDS011;4988;49.238;6.698;2024-02-14T01:12:34;10.97;;;4.60;;
9898;SDS011;4988;49.238;6.698;2024-02-14T01:14:59;19.73;;;6.00;;
9898;SDS011;4988;49.238;6.698;2024-02-14T01:17:25;15.40;;;6.17;;
9898;SDS011;4988;49.238;6.698;2024-02-14T01:19:50;17.47;;;5.73;;
9898;SDS011;4988;49.238;6.698;2024-02-14T01:22:16;13.17;;;5.50;;
9898;SDS011;4988;49.238;6.698;2024-02-14T01:24:42;14.30;;;5.50;;
9898;SDS011;4988;49.238;6.698;2024-02-14T01:27:08;10.70;;;5.73;;
9898;SDS011;4988;49.238;6.698;2024-02-14T01:29:33;12.37;;;6.03;;
9898;SDS011;4988;49.238;6.698;2024-02-14T01:31:59;19.33;;;7.90;;
9898;SDS011;4988;49.238;6.698;2024-02-14T01:34:24;19.60;;;8.10;;
9898;SDS011;4988;49.238;6.698;2024-02-14T01:36:49;25.00;;;8.40;;
9898;SDS011;4988;49.238;6.698;2024-02-14T01:39:15;19.87;;;6.97;;
9898;SDS011;4988;49.238;6.698;2024-02-14T01:41:46;19.37;;;7.67;;
9898;SDS011;4988;49.238;6.698;2024-02-14T01:44:13;31.00;;;11.30;;
9898;SDS011;4988;49.238;6.698;2024-02-14T01:46:40;24.97;;;8.37;;
9898;SDS011;4988;49.238;6.698;2024-02-14T01:49:06;20.93;;;8.83;;
9898;SDS011;4988;49.238;6.698;2024-02-14T01:51:32;15.37;;;7.27;;
9898;SDS011;4988;49.238;6.698;2024-02-14T01:54:00;18.37;;;6.77;;
9898;SDS011;4988;49.238;6.698;2024-02-14T01:56:28;19.03;;;7.30;;
9898;SDS011;4988;49.238;6.698;2024-02-14T01:58:54;20.70;;;8.00;;
9898;SDS011;4988;49.238;6.698;2024-02-14T02:01:19;21.57;;;7.33;;
9898;SDS011;4988;49.238;6.698;2024-02-14T02:03:45;10.10;;;4.83;;
9898;SDS011;4988;49.238;6.698;2024-02-14T02:06:10;13.60;;;5.57;;
9898;SDS011;4988;49.238;6.698;2024-02-14T02:08:36;11.13;;;5.43;;
9898;SDS011;4988;49.238;6.698;2024-02-14T02:11:01;14.23;;;6.33;;
9898;SDS011;4988;49.238;6.698;2024-02-14T02:13:27;13.97;;;5.90;;
9898;SDS011;4988;49.238;6.698;2024-02-14T02:15:53;13.50;;;6.50;;
9898;SDS011;4988;49.238;6.698;2024-02-14T02:18:18;15.87;;;6.80;;
9898;SDS011;4988;49.238;6.698;2024-02-14T02:20:44;13.27;;;5.80;;
9898;SDS011;4988;49.238;6.698;2024-02-14T02:23:11;11.13;;;5.13;;
9898;SDS011;4988;49.238;6.698;2024-02-14T02:25:39;8.97;;;4.90;;
9898;SDS011;4988;49.238;6.698;2024-02-14T02:28:05;7.80;;;4.80;;
9898;SDS011;4988;49.238;6.698;2024-02-14T02:30:31;8.13;;;4.10;;
9898;SDS011;4988;49.238;6.698;2024-02-14T02:32:56;10.20;;;5.30;;
9898;SDS011;4988;49.238;6.698;2024-02-14T02:35:21;10.07;;;4.80;;
9898;SDS011;4988;49.238;6.698;2024-02-14T02:37:47;9.93;;;5.20;;
9898;SDS011;4988;49.238;6.698;2024-02-14T02:40:15;11.17;;;5.03;;
9898;SDS011;4988;49.238;6.698;2024-02-14T02:42:42;16.97;;;5.80;;
9898;SDS011;4988;49.238;6.698;2024-02-14T02:45:07;9.33;;;4.70;;
9898;SDS011;4988;49.238;6.698;2024-02-14T02:47:33;11.30;;;4.97;;
9898;SDS011;4988;49.238;6.698;2024-02-14T02:49:59;18.37;;;7.20;;
9898;SDS011;4988;49.238;6.698;2024-02-14T02:52:26;12.23;;;5.87;;
9898;SDS011;4988;49.238;6.698;2024-02-14T02:54:52;8.60;;;3.70;;
9898;SDS011;4988;49.238;6.698;2024-02-14T02:57:18;9.30;;;4.57;;
9898;SDS011;4988;49.238;6.698;2024-02-14T02:59:44;10.27;;;4.60;;
9898;SDS011;4988;49.238;6.698;2024-02-14T03:02:11;6.80;;;4.40;;
9898;SDS011;4988;49.238;6.698;2024-02-14T03:04:37;9.50;;;4.50;;
9898;SDS011;4988;49.238;6.698;2024-02-14T03:07:03;11.50;;;4.73;;
9898;SDS011;4988;49.238;6.698;2024-02-14T03:09:31;10.93;;;4.87;;
9898;SDS011;4988;49.238;6.698;2024-02-14T03:11:57;8.73;;;4.47;;
9898;SDS011;4988;49.238;6.698;2024-02-14T03:14:23;8.83;;;4.20;;
9898;SDS011;4988;49.238;6.698;2024-02-14T03:16:48;10.47;;;4.47;;
9898;SDS011;4988;49.238;6.698;2024-02-14T03:19:13;9.27;;;4.07;;
9898;SDS011;4988;49.238;6.698;2024-02-14T03:21:39;7.70;;;4.03;;
9898;SDS011;4988;49.238;6.698;2024-02-14T03:24:04;9.53;;;4.83;;
9898;SDS011;4988;49.238;6.698;2024-02-14T03:26:30;10.30;;;4.90;;
9898;SDS011;4988;49.238;6.698;2024-02-14T03:29:03;12.47;;;5.50;;
9898;SDS011;4988;49.238;6.698;2024-02-14T03:31:31;11.40;;;4.97;;
9898;SDS011;4988;49.238;6.698;2024-02-14T03:33:56;8.60;;;4.47;;
9898;SDS011;4988;49.238;6.698;2024-02-14T03:36:22;6.97;;;3.87;;
9898;SDS011;4988;49.238;6.698;2024-02-14T03:38:49;8.30;;;4.00;;
9898;SDS011;4988;49.238;6.698;2024-02-14T03:41:14;7.77;;;4.07;;
9898;SDS011;4988;49.238;6.698;2024-02-14T03:43:39;7.77;;;3.87;;
9898;SDS011;4988;49.238;6.698;2024-02-14T03:46:05;8.73;;;4.27;;
9898;SDS011;4988;49.238;6.698;2024-02-14T03:48:30;7.40;;;3.67;;
9898;SDS011;4988;49.238;6.698;2024-02-14T03:50:56;8.80;;;3.70;;
9898;SDS011;4988;49.238;6.698;2024-02-14T03:53:22;7.47;;;4.20;;
9898;SDS011;4988;49.238;6.698;2024-02-14T03:55:47;9.83;;;4.50;;
9898;SDS011;4988;49.238;6.698;2024-02-14T03:58:14;12.03;;;4.73;;
9898;SDS011;4988;49.238;6.698;2024-02-14T04:00:41;19.73;;;6.80;;
9898;SDS011;4988;49.238;6.698;2024-02-14T04:03:11;17.20;;;6.33;;
9898;SDS011;4988;49.238;6.698;2024-02-14T04:05:37;16.87;;;6.57;;
9898;SDS011;4988;49.238;6.698;2024-02-14T04:08:02;21.90;;;8.03;;
9898;SDS011;4988;49.238;6.698;2024-02-14T04:10:28;21.03;;;7.93;;
9898;SDS011;4988;49.238;6.698;2024-02-14T04:12:53;19.30;;;7.03;;
9898;SDS011;4988;49.238;6.698;2024-02-14T04:15:19;27.37;;;9.43;;
9898;SDS011;4988;49.238;6.698;2024-02-14T04:17:44;27.93;;;8.93;;
9898;SDS011;4988;49.238;6.698;2024-02-14T04:20:09;21.47;;;6.90;;
9898;SDS011;4988;49.238;6.698;2024-02-14T04:22:35;13.53;;;5.37;;
9898;SDS011;4988;49.238;6.698;2024-02-14T04:25:00;13.97;;;5.70;;
9898;SDS011;4988;49.238;6.698;2024-02-14T04:27:27;27.80;;;9.40;;
9898;SDS011;4988;49.238;6.698;2024-02-14T04:29:53;19.67;;;7.43;;
9898;SDS011;4988;49.238;6.698;2024-02-14T04:32:18;10.83;;;5.47;;
9898;SDS011;4988;49.238;6.698;2024-02-14T04:34:44;12.47;;;5.10;;
9898;SDS011;4988;49.238;6.698;2024-02-14T04:37:10;13.53;;;5.97;;
9898;SDS011;4988;49.238;6.698;2024-02-14T04:39:38;20.33;;;6.93;;
9898;SDS011;4988;49.238;6.698;2024-02-14T04:42:04;22.73;;;7.50;;
9898;SDS011;4988;49.238;6.698;2024-02-14T04:44:30;26.23;;;8.83;;
9898;SDS011;4988;49.238;6.698;2024-02-14T04:46:56;22.33;;;7.73;;
9898;SDS011;4988;49.238;6.698;2024-02-14T04:49:23;23.13;;;7.57;;
9898;SDS011;4988;49.238;6.698;2024-02-14T04:51:48;25.33;;;10.27;;
9898;SDS011;4988;49.238;6.698;2024-02-14T04:54:13;28.57;;;9.43;;
9898;SDS011;4988;49.238;6.698;2024-02-14T04:56:41;28.07;;;8.87;;
9898;SDS011;4988;49.238;6.698;2024-02-14T04:59:07;22.03;;;8.60;;
9898;SDS011;4988;49.238;6.698;2024-02-14T05:01:33;19.53;;;7.63;;
9898;SDS011;4988;49.238;6.698;2024-02-14T05:03:59;17.77;;;7.33;;
9898;SDS011;4988;49.238;6.698;2024-02-14T05:06:24;16.53;;;6.93;;
9898;SDS011;4988;49.238;6.698;2024-02-14T05:08:49;13.90;;;6.07;;
9898;SDS011;4988;49.238;6.698;2024-02-14T05:11:16;11.97;;;6.27;;
9898;SDS011;4988;49.238;6.698;2024-02-14T05:13:42;8.67;;;5.20;;
9898;SDS011;4988;49.238;6.698;2024-02-14T05:16:07;8.97;;;4.73;;
9898;SDS011;4988;49.238;6.698;2024-02-14T05:18:35;12.83;;;6.50;;
9898;SDS011;4988;49.238;6.698;2024-02-14T05:21:04;11.63;;;6.60;;
9898;SDS011;4988;49.238;6.698;2024-02-14T05:23:30;8.57;;;4.90;;
9898;SDS011;4988;49.238;6.698;2024-02-14T05:25:55;11.97;;;4.97;;
9898;SDS011;4988;49.238;6.698;2024-02-14T05:28:21;9.67;;;5.73;;
9898;SDS011;4988;49.238;6.698;2024-02-14T05:30:46;9.60;;;5.77;;
9898;SDS011;4988;49.238;6.698;2024-02-14T05:33:11;11.90;;;6.00;;
9898;SDS011;4988;49.238;6.698;2024-02-14T05:35:37;10.47;;;5.70;;
9898;SDS011;4988;49.238;6.698;2024-02-14T05:38:02;11.83;;;5.33;;
9898;SDS011;4988;49.238;6.698;2024-02-14T05:40:29;10.97;;;5.23;;
9898;SDS011;4988;49.238;6.698;2024-02-14T05:42:54;13.23;;;5.57;;
9898;SDS011;4988;49.238;6.698;2024-02-14T05:45:21;11.93;;;5.40;;
9898;SDS011;4988;49.238;6.698;2024-02-14T05:47:46;8.67;;;4.90;;
9898;SDS011;4988;49.238;6.698;2024-02-14T05:50:11;13.87;;;5.07;;
9898;SDS011;4988;49.238;6.698;2024-02-14T05:52:38;7.57;;;4.80;;
9898;SDS011;4988;49.238;6.698;2024-02-14T05:55:04;9.70;;;5.67;;
9898;SDS011;4988;49.238;6.698;2024-02-14T05:57:30;14.43;;;6.73;;
9898;SDS011;4988;49.238;6.698;2024-02-14T05:59:55;12.03;;;5.10;;
9898;SDS011;4988;49.238;6.698;2024-02-14T06:02:20;11.47;;;6.17;;
9898;SDS011;4988;49.238;6.698;2024-02-14T06:04:46;13.37;;;5.93;;
9898;SDS011;4988;49.238;6.698;2024-02-14T06:07:11;10.60;;;5.60;;
9898;SDS011;4988;49.238;6.698;2024-02-14T06:09:37;14.37;;;6.63;;
9898;SDS011;4988;49.238;6.698;2024-02-14T06:12:03;14.47;;;5.40;;
9898;SDS011;4988;49.238;6.698;2024-02-14T06:14:29;8.20;;;5.30;;
9898;SDS011;4988;49.238;6.698;2024-02-14T06:16:55;9.67;;;5.47;;
9898;SDS011;4988;49.238;6.698;2024-02-14T06:19:21;10.33;;;5.20;;
9898;SDS011;4988;49.238;6.698;2024-02-14T06:21:47;9.90;;;5.93;;
9898;SDS011;4988;49.238;6.698;2024-02-14T06:24:12;10.13;;;5.03;;
9898;SDS011;4988;49.238;6.698;2024-02-14T06:26:38;12.30;;;5.20;;
9898;SDS011;4988;49.238;6.698;2024-02-14T06:29:03;9.07;;;6.07;;
9898;SDS011;4988;49.238;6.698;2024-02-14T06:31:29;12.10;;;6.13;;
9898;SDS011;4988;49.238;6.698;2024-02-14T06:33:54;9.73;;;5.10;;
9898;SDS011;4988;49.238;6.698;2024-02-14T06:36:19;9.33;;;5.47;;
9898;SDS011;4988;49.238;6.698;2024-02-14T06:38:45;15.10;;;6.50;;
9898;SDS011;4988;49.238;6.698;2024-02-14T06:41:11;10.63;;;5.00;;
9898;SDS011;4988;49.238;6.698;2024-02-14T06:43:37;11.13;;;5.30;;
9898;SDS011;4988;49.238;6.698;2024-02-14T06:46:04;12.67;;;5.53;;
9898;SDS011;4988;49.238;6.698;2024-02-14T06:48:30;10.97;;;5.20;;
9898;SDS011;4988;49.238;6.698;2024-02-14T06:50:55;10.80;;;5.37;;
9898;SDS011;4988;49.238;6.698;2024-02-14T06:53:21;8.10;;;4.70;;
9898;SDS011;4988;49.238;6.698;2024-02-14T06:55:47;9.07;;;4.73;;
9898;SDS011;4988;49.238;6.698;2024-02-14T06:58:12;9.93;;;4.83;;
9898;SDS011;4988;49.238;6.698;2024-02-14T07:00:37;8.83;;;4.77;;
9898;SDS011;4988;49.238;6.698;2024-02-14T07:03:03;10.03;;;5.20;;
9898;SDS011;4988;49.238;6.698;2024-02-14T07:05:28;9.97;;;5.17;;
9898;SDS011;4988;49.238;6.698;2024-02-14T07:07:54;11.10;;;5.60;;
9898;SDS011;4988;49.238;6.698;2024-02-14T07:10:22;9.80;;;5.77;;
9898;SDS011;4988;49.238;6.698;2024-02-14T07:12:48;13.27;;;6.03;;
9898;SDS011;4988;49.238;6.698;2024-02-14T07:15:13;12.10;;;6.20;;
9898;SDS011;4988;49.238;6.698;2024-02-14T07:17:38;8.00;;;5.23;;
9898;SDS011;4988;49.238;6.698;2024-02-14T07:20:04;10.97;;;5.30;;
9898;SDS011;4988;49.238;6.698;2024-02-14T07:22:30;7.83;;;4.70;;
9898;SDS011;4988;49.238;6.698;2024-02-14T07:24:56;16.93;;;5.63;;
9898;SDS011;4988;49.238;6.698;2024-02-14T07:27:21;10.67;;;5.30;;
9898;SDS011;4988;49.238;6.698;2024-02-14T07:29:47;10.73;;;4.93;;
9898;SDS011;4988;49.238;6.698;2024-02-14T07:32:12;12.00;;;5.70;;
9898;SDS011;4988;49.238;6.698;2024-02-14T07:34:38;9.13;;;5.40;;
9898;SDS011;4988;49.238;6.698;2024-02-14T07:37:04;8.87;;;4.90;;
9898;SDS011;4988;49.238;6.698;2024-02-14T07:39:29;10.50;;;5.40;;
9898;SDS011;4988;49.238;6.698;2024-02-14T07:41:55;10.20;;;5.60;;
9898;SDS011;4988;49.238;6.698;2024-02-14T07:44:22;12.90;;;5.10;;
9898;SDS011;4988;49.238;6.698;2024-02-14T07:46:48;12.43;;;5.37;;
9898;SDS011;4988;49.238;6.698;2024-02-14T07:49:14;12.47;;;5.80;;
9898;SDS011;4988;49.238;6.698;2024-02-14T07:51:39;10.30;;;5.63;;
9898;SDS011;4988;49.238;6.698;2024-02-14T07:54:05;7.07;;;5.20;;
9898;SDS011;4988;49.238;6.698;2024-02-14T07:56:31;11.13;;;5.60;;
9898;SDS011;4988;49.238;6.698;2024-02-14T07:58:57;11.00;;;5.17;;
9898;SDS011;4988;49.238;6.698;2024-02-14T08:01:22;10.43;;;5.63;;
9898;SDS011;4988;49.238;6.698;2024-02-14T08:03:48;16.13;;;6.00;;
9898;SDS011;4988;49.238;6.698;2024-02-14T08:06:13;12.53;;;6.23;;
9898;SDS011;4988;49.238;6.698;2024-02-14T08:08:39;11.90;;;5.77;;
9898;SDS011;4988;49.238;6.698;2024-02-14T08:11:04;12.40;;;5.83;;
9898;SDS011;4988;49.238;6.698;2024-02-14T08:13:30;12.63;;;6.67;;
9898;SDS011;4988;49.238;6.698;2024-02-14T08:15:56;13.10;;;5.83;;
9898;SDS011;4988;49.238;6.698;2024-02-14T08:18:23;15.83;;;6.60;;
9898;SDS011;4988;49.238;6.698;2024-02-14T08:20:49;11.40;;;6.23;;
9898;SDS011;4988;49.238;6.698;2024-02-14T08:23:14;12.87;;;5.80;;
9898;SDS011;4988;49.238;6.698;2024-02-14T08:25:39;12.37;;;6.40;;
9898;SDS011;4988;49.238;6.698;2024-02-14T08:28:06;13.53;;;6.43;;
9898;SDS011;4988;49.238;6.698;2024-02-14T08:30:32;11.10;;;6.77;;
9898;SDS011;4988;49.238;6.698;2024-02-14T08:32:58;12.47;;;6.23;;
9898;SDS011;4988;49.238;6.698;2024-02-14T08:35:23;13.20;;;6.43;;
9898;SDS011;4988;49.238;6.698;2024-02-14T08:37:48;12.10;;;6.83;;
9898;SDS011;4988;49.238;6.698;2024-02-14T08:40:14;12.70;;;6.67;;
9898;SDS011;4988;49.238;6.698;2024-02-14T08:42:39;14.57;;;6.70;;
9898;SDS011;4988;49.238;6.698;2024-02-14T08:45:05;11.13;;;6.33;;
9898;SDS011;4988;49.238;6.698;2024-02-14T08:47:31;12.23;;;6.40;;
9898;SDS011;4988;49.238;6.698;2024-02-14T08:49:56;12.17;;;6.53;;
9898;SDS011;4988;49.238;6.698;2024-02-14T08:52:21;12.27;;;6.47;;
9898;SDS011;4988;49.238;6.698;2024-02-14T08:54:47;15.07;;;6.60;;
9898;SDS011;4988;49.238;6.698;2024-02-14T08:57:12;11.83;;;6.17;;
9898;SDS011;4988;49.238;6.698;2024-02-14T08:59:37;13.13;;;6.90;;
9898;SDS011;4988;49.238;6.698;2024-02-14T09:02:03;11.40;;;6.33;;
9898;SDS011;4988;49.238;6.698;2024-02-14T09:04:28;10.83;;;6.10;;
9898;SDS011;4988;49.238;6.698;2024-02-14T09:06:54;14.07;;;6.53;;
9898;SDS011;4988;49.238;6.698;2024-02-14T09:09:19;13.07;;;6.37;;
9898;SDS011;4988;49.238;6.698;2024-02-14T09:11:45;12.13;;;6.97;;
9898;SDS011;4988;49.238;6.698;2024-02-14T09:14:11;13.07;;;6.53;;
9898;SDS011;4988;49.238;6.698;2024-02-14T09:16:37;16.83;;;7.23;;
9898;SDS011;4988;49.238;6.698;2024-02-14T09:19:02;13.00;;;7.03;;
9898;SDS011;4988;49.238;6.698;2024-02-14T09:21:30;11.07;;;6.47;;
9898;SDS011;4988;49.238;6.698;2024-02-14T09:23:55;16.37;;;7.33;;
9898;SDS011;4988;49.238;6.698;2024-02-14T09:26:21;13.00;;;6.70;;
9898;SDS011;4988;49.238;6.698;2024-02-14T09:28:46;14.27;;;6.57;;
9898;SDS011;4988;49.238;6.698;2024-02-14T09:31:11;14.63;;;7.37;;
9898;SDS011;4988;49.238;6.698;2024-02-14T09:33:37;13.03;;;7.13;;
9898;SDS011;4988;49.238;6.698;2024-02-14T09:36:03;15.40;;;7.87;;
9898;SDS011;4988;49.238;6.698;2024-02-14T09:38:29;13.37;;;6.70;;
9898;SDS011;4988;49.238;6.698;2024-02-14T09:40:58;14.30;;;7.17;;
9898;SDS011;4988;49.238;6.698;2024-02-14T09:43:47;13.37;;;7.27;;
9898;SDS011;4988;49.238;6.698;2024-02-14T09:46:13;14.43;;;7.60;;
9898;SDS011;4988;49.238;6.698;2024-02-14T09:48:39;20.93;;;10.93;;
9898;SDS011;4988;49.238;6.698;2024-02-14T09:51:08;15.53;;;8.70;;
9898;SDS011;4988;49.238;6.698;2024-02-14T09:53:34;19.27;;;8.00;;
9898;SDS011;4988;49.238;6.698;2024-02-14T09:56:00;16.80;;;9.07;;
9898;SDS011;4988;49.238;6.698;2024-02-14T09:58:27;19.67;;;9.50;;
9898;SDS011;4988;49.238;6.698;2024-02-14T10:00:53;15.90;;;9.03;;
9898;SDS011;4988;49.238;6.698;2024-02-14T10:03:18;15.50;;;9.00;;
9898;SDS011;4988;49.238;6.698;2024-02-14T10:05:44;16.10;;;8.57;;
9898;SDS011;4988;49.238;6.698;2024-02-14T10:08:09;17.07;;;8.10;;
9898;SDS011;4988;49.238;6.698;2024-02-14T10:10:35;15.07;;;7.90;;
9898;SDS011;4988;49.238;6.698;2024-02-14T10:13:05;13.87;;;7.37;;
9898;SDS011;4988;49.238;6.698;2024-02-14T10:15:31;13.87;;;7.87;;
9898;SDS011;4988;49.238;6.698;2024-02-14T10:17:57;14.80;;;7.90;;
9898;SDS011;4988;49.238;6.698;2024-02-14T10:20:24;16.50;;;8.27;;
9898;SDS011;4988;49.238;6.698;2024-02-14T10:22:49;16.23;;;7.40;;
9898;SDS011;4988;49.238;6.698;2024-02-14T10:25:14;16.37;;;7.40;;
9898;SDS011;4988;49.238;6.698;2024-02-14T10:27:40;12.13;;;7.10;;
9898;SDS011;4988;49.238;6.698;2024-02-14T10:30:06;13.60;;;7.60;;
9898;SDS011;4988;49.238;6.698;2024-02-14T10:32:36;13.43;;;6.80;;
9898;SDS011;4988;49.238;6.698;2024-02-14T10:35:04;12.77;;;7.47;;
9898;SDS011;4988;49.238;6.698;2024-02-14T10:37:33;12.43;;;7.47;;
9898;SDS011;4988;49.238;6.698;2024-02-14T10:40:01;13.60;;;7.63;;
9898;SDS011;4988;49.238;6.698;2024-02-14T10:42:28;12.93;;;7.50;;
9898;SDS011;4988;49.238;6.698;2024-02-14T10:44:54;9.70;;;6.60;;
9898;SDS011;4988;49.238;6.698;2024-02-14T10:47:20;14.70;;;7.70;;
9898;SDS011;4988;49.238;6.698;2024-02-14T10:49:49;15.43;;;7.17;;
9898;SDS011;4988;49.238;6.698;2024-02-14T10:52:16;18.57;;;8.67;;
9898;SDS011;4988;49.238;6.698;2024-02-14T10:54:43;14.57;;;7.57;;
9898;SDS011;4988;49.238;6.698;2024-02-14T10:57:17;16.07;;;7.87;;
9898;SDS011;4988;49.238;6.698;2024-02-14T10:59:46;11.33;;;6.30;;
9898;SDS011;4988;49.238;6.698;2024-02-14T11:02:14;12.77;;;7.17;;
9898;SDS011;4988;49.238;6.698;2024-02-14T11:04:40;10.37;;;6.93;;
9898;SDS011;4988;49.238;6.698;2024-02-14T11:07:08;13.53;;;7.77;;
9898;SDS011;4988;49.238;6.698;2024-02-14T11:09:38;11.70;;;7.40;;
9898;SDS011;4988;49.238;6.698;2024-02-14T11:12:08;11.57;;;7.13;;
9898;SDS011;4988;49.238;6.698;2024-02-14T11:14:35;13.93;;;7.80;;
9898;SDS011;4988;49.238;6.698;2024-02-14T11:17:03;11.93;;;7.13;;
9898;SDS011;4988;49.238;6.698;2024-02-14T11:19:34;11.90;;;7.93;;
9898;SDS011;4988;49.238;6.698;2024-02-14T11:22:09;11.07;;;7.40;;
9898;SDS011;4988;49.238;6.698;2024-02-14T11:24:37;11.10;;;6.80;;
9898;SDS011;4988;49.238;6.698;2024-02-14T11:27:02;16.07;;;7.57;;
9898;SDS011;4988;49.238;6.698;2024-02-14T11:29:31;13.60;;;6.90;;
9898;SDS011;4988;49.238;6.698;2024-02-14T11:31:59;12.83;;;6.13;;
9898;SDS011;4988;49.238;6.698;2024-02-14T11:34:27;11.13;;;6.87;;
9898;SDS011;4988;49.238;6.698;2024-02-14T11:36:53;7.87;;;5.80;;
9898;SDS011;4988;49.238;6.698;2024-02-14T11:39:18;13.27;;;7.97;;
9898;SDS011;4988;49.238;6.698;2024-02-14T11:41:45;8.93;;;6.20;;
9898;SDS011;4988;49.238;6.698;2024-02-14T11:44:10;9.20;;;6.20;;
9898;SDS011;4988;49.238;6.698;2024-02-14T11:46:37;12.90;;;7.90;;
9898;SDS011;4988;49.238;6.698;2024-02-14T11:49:03;11.53;;;7.10;;
9898;SDS011;4988;49.238;6.698;2024-02-14T11:51:30;13.50;;;8.83;;
9898;SDS011;4988;49.238;6.698;2024-02-14T11:53:57;13.37;;;8.60;;
9898;SDS011;4988;49.238;6.698;2024-02-14T11:56:29;13.83;;;8.83;;
9898;SDS011;4988;49.238;6.698;2024-02-14T11:58:59;13.43;;;8.23;;
9898;SDS011;4988;49.238;6.698;2024-02-14T12:01:27;14.40;;;9.00;;
9898;SDS011;4988;49.238;6.698;2024-02-14T12:03:57;13.90;;;8.03;;
9898;SDS011;4988;49.238;6.698;2024-02-14T12:06:25;15.03;;;9.23;;
9898;SDS011;4988;49.238;6.698;2024-02-14T12:08:51;16.10;;;9.43;;
9898;SDS011;4988;49.238;6.698;2024-02-14T12:11:17;14.17;;;8.97;;
9898;SDS011;4988;49.238;6.698;2024-02-14T12:13:42;13.67;;;9.17;;
9898;SDS011;4988;49.238;6.698;2024-02-14T12:16:08;15.57;;;9.77;;
9898;SDS011;4988;49.238;6.698;2024-02-14T12:18:35;16.00;;;9.47;;
9898;SDS011;4988;49.238;6.698;2024-02-14T12:21:07;15.70;;;9.23;;
9898;SDS011;4988;49.238;6.698;2024-02-14T12:23:32;15.23;;;9.97;;
9898;SDS011;4988;49.238;6.698;2024-02-14T12:26:01;15.13;;;9.30;;
9898;SDS011;4988;49.238;6.698;2024-02-14T12:28:28;13.90;;;8.13;;
9898;SDS011;4988;49.238;6.698;2024-02-14T12:30:56;13.87;;;9.30;;
9898;SDS011;4988;49.238;6.698;2024-02-14T12:33:22;16.70;;;9.20;;
9898;SDS011;4988;49.238;6.698;2024-02-14T12:35:49;14.23;;;8.47;;
9898;SDS011;4988;49.238;6.698;2024-02-14T12:38:16;14.90;;;8.50;;
9898;SDS011;4988;49.238;6.698;2024-02-14T12:40:42;14.57;;;8.20;;
9898;SDS011;4988;49.238;6.698;2024-02-14T12:43:09;13.23;;;8.50;;
9898;SDS011;4988;49.238;6.698;2024-02-14T12:45:36;15.87;;;8.70;;
9898;SDS011;4988;49.238;6.698;2024-02-14T12:48:02;12.27;;;8.53;;
9898;SDS011;4988;49.238;6.698;2024-02-14T12:50:27;16.50;;;9.13;;
9898;SDS011;4988;49.238;6.698;2024-02-14T12:52:53;13.87;;;8.57;;
9898;SDS011;4988;49.238;6.698;2024-02-14T12:55:18;12.37;;;8.37;;
9898;SDS011;4988;49.238;6.698;2024-02-14T12:57:44;14.73;;;7.90;;
9898;SDS011;4988;49.238;6.698;2024-02-14T13:00:10;13.47;;;7.73;;
9898;SDS011;4988;49.238;6.698;2024-02-14T13:02:36;13.30;;;8.43;;
9898;SDS011;4988;49.238;6.698;2024-02-14T13:05:03;14.73;;;8.20;;
9898;SDS011;4988;49.238;6.698;2024-02-14T13:07:29;12.37;;;8.17;;
9898;SDS011;4988;49.238;6.698;2024-02-14T13:09:55;13.30;;;8.13;;
9898;SDS011;4988;49.238;6.698;2024-02-14T13:12:21;12.17;;;8.20;;
9898;SDS011;4988;49.238;6.698;2024-02-14T13:14:46;15.80;;;8.20;;
9898;SDS011;4988;49.238;6.698;2024-02-14T13:17:12;12.93;;;8.10;;
9898;SDS011;4988;49.238;6.698;2024-02-14T13:19:38;11.93;;;7.63;;
9898;SDS011;4988;49.238;6.698;2024-02-14T13:22:04;13.53;;;8.17;;
9898;SDS011;4988;49.238;6.698;2024-02-14T13:24:30;14.97;;;8.93;;
9898;SDS011;4988;49.238;6.698;2024-02-14T13:26:55;13.30;;;8.27;;
9898;SDS011;4988;49.238;6.698;2024-02-14T13:29:22;16.50;;;8.20;;
9898;SDS011;4988;49.238;6.698;2024-02-14T13:31:49;14.40;;;8.10;;
9898;SDS011;4988;49.238;6.698;2024-02-14T13:34:15;13.43;;;8.20;;
9898;SDS011;4988;49.238;6.698;2024-02-14T13:36:40;14.87;;;8.03;;
9898;SDS011;4988;49.238;6.698;2024-02-14T13:39:06;12.80;;;8.40;;
9898;SDS011;4988;49.238;6.698;2024-02-14T13:41:34;15.93;;;9.30;;
9898;SDS011;4988;49.238;6.698;2024-02-14T13:44:02;22.50;;;12.10;;
9898;SDS011;4988;49.238;6.698;2024-02-14T13:46:28;14.97;;;8.80;;
9898;SDS011;4988;49.238;6.698;2024-02-14T13:48:53;16.03;;;10.13;;
9898;SDS011;4988;49.238;6.698;2024-02-14T13:51:19;15.63;;;9.30;;
9898;SDS011;4988;49.238;6.698;2024-02-14T13:53:45;16.20;;;9.50;;
9898;SDS011;4988;49.238;6.698;2024-02-14T13:56:10;18.23;;;10.10;;
9898;SDS011;4988;49.238;6.698;2024-02-14T13:58:36;18.60;;;9.80;;
9898;SDS011;4988;49.238;6.698;2024-02-14T14:01:03;16.00;;;9.77;;
9898;SDS011;4988;49.238;6.698;2024-02-14T14:03:29;16.00;;;9.97;;
9898;SDS011;4988;49.238;6.698;2024-02-14T14:05:55;20.13;;;9.83;;
9898;SDS011;4988;49.238;6.698;2024-02-14T14:08:21;19.57;;;10.30;;
9898;SDS011;4988;49.238;6.698;2024-02-14T14:10:47;16.60;;;10.87;;
9898;SDS011;4988;49.238;6.698;2024-02-14T14:13:13;15.23;;;9.00;;
9898;SDS011;4988;49.238;6.698;2024-02-14T14:15:39;14.60;;;9.63;;
9898;SDS011;4988;49.238;6.698;2024-02-14T14:18:05;15.43;;;9.50;;
9898;SDS011;4988;49.238;6.698;2024-02-14T14:20:33;14.17;;;9.87;;
9898;SDS011;4988;49.238;6.698;2024-02-14T14:22:58;15.77;;;9.13;;
9898;SDS011;4988;49.238;6.698;2024-02-14T14:25:24;12.20;;;8.43;;
9898;SDS011;4988;49.238;6.698;2024-02-14T14:27:50;16.37;;;9.13;;
9898;SDS011;4988;49.238;6.698;2024-02-14T14:30:15;10.43;;;7.53;;
9898;SDS011;4988;49.238;6.698;2024-02-14T14:32:40;11.73;;;8.10;;
9898;SDS011;4988;49.238;6.698;2024-02-14T14:35:05;12.30;;;8.27;;
9898;SDS011;4988;49.238;6.698;2024-02-14T14:37:31;13.07;;;8.93;;
9898;SDS011;4988;49.238;6.698;2024-02-14T14:39:57;14.00;;;7.70;;
9898;SDS011;4988;49.238;6.698;2024-02-14T14:42:22;12.77;;;8.87;;
9898;SDS011;4988;49.238;6.698;2024-02-14T14:44:47;12.00;;;8.27;;
9898;SDS011;4988;49.238;6.698;2024-02-14T14:47:13;16.17;;;8.57;;
9898;SDS011;4988;49.238;6.698;2024-02-14T14:49:38;14.60;;;8.80;;
9898;SDS011;4988;49.238;6.698;2024-02-14T14:52:04;15.50;;;8.50;;
9898;SDS011;4988;49.238;6.698;2024-02-14T14:54:29;16.83;;;8.47;;
9898;SDS011;4988;49.238;6.698;2024-02-14T14:56:55;14.43;;;8.67;;